Time;durP1;ratioP1;P1;durP2;ratioP2;P2;SDS_P1;SDS_P2;PMS_P1;PMS_P2;Temp;Humidity;BMP_temperature;BMP_pressure;BME280_temperature;BME280_humidity;BME280_pressure;Samples;Min_cycle;Max_cycle;Signal;HPM_P1;HPM_P2
2022/07/13 00:00:43;;;;;;;;;;;21.70;70.10;;;;;;4997095;28;19921;-83
2022/07/13 00:03:09;;;;;;;;;;;21.70;69.90;;;;;;5005785;28;19913;-84
2022/07/13 00:05:34;;;;;;;;;;;21.60;69.50;;;;;;4998995;28;19921;-84
2022/07/13 00:07:59;;;;;;;;;;;21.70;68.60;;;;;;5029002;28;20348;-84
2022/07/13 00:10:25;;;;;;;;;;;21.70;67.70;;;;;;5006260;28;19921;-84
2022/07/13 00:12:51;;;;;;;;;;;21.80;67.10;;;;;;4994803;28;19945;-84
2022/07/13 00:15:16;;;;;;;;;;;21.80;67.00;;;;;;5009416;28;20415;-84
2022/07/13 00:17:42;;;;;;;;;;;21.90;66.20;;;;;;5030802;28;20262;-84
2022/07/13 00:20:07;;;;;;;;;;;21.90;65.80;;;;;;5003800;28;19929;-84
2022/07/13 00:22:33;;;;;;;;;;;21.90;66.60;;;;;;5006717;28;20318;-84
2022/07/13 00:24:58;;;;;;;;;;;22.00;67.00;;;;;;5007487;28;20364;-84
2022/07/13 00:27:24;;;;;;;;;;;22.00;67.70;;;;;;5025259;28;19917;-85
2022/07/13 00:29:49;;;;;;;;;;;21.90;68.40;;;;;;4999736;28;19914;-84
2022/07/13 00:32:15;;;;;;;;;;;21.90;67.00;;;;;;5001853;28;19914;-84
2022/07/13 00:34:40;;;;;;;;;;;21.90;66.30;;;;;;5009673;28;19953;-84
2022/07/13 00:37:06;;;;;;;;;;;21.90;66.70;;;;;;5011476;28;19917;-83
2022/07/13 00:39:32;;;;;;;;;;;21.90;67.10;;;;;;5001730;28;20028;-84
2022/07/13 00:41:57;;;;;;;;;;;21.80;67.10;;;;;;5015192;28;19972;-84
2022/07/13 00:44:23;;;;;;;;;;;21.80;66.70;;;;;;5003438;28;19915;-84
2022/07/13 00:46:52;;;;;;;;;;;21.80;66.00;;;;;;5020185;28;19917;-84
2022/07/13 00:49:18;;;;;;;;;;;21.80;65.90;;;;;;5013648;28;20000;-83
2022/07/13 00:51:43;;;;;;;;;;;21.90;64.70;;;;;;5003191;28;19972;-84
2022/07/13 00:54:10;;;;;;;;;;;21.90;65.60;;;;;;5002127;28;19921;-84
2022/07/13 00:56:36;;;;;;;;;;;22.00;65.50;;;;;;5019436;28;19917;-84
2022/07/13 00:59:04;;;;;;;;;;;21.90;67.60;;;;;;5000089;28;20001;-85
2022/07/13 01:01:29;;;;;;;;;;;21.90;70.50;;;;;;4995040;28;19964;-86
2022/07/13 01:03:55;;;;;;;;;;;21.80;73.40;;;;;;5025079;28;19988;-85
2022/07/13 01:06:20;;;;;;;;;;;21.70;73.20;;;;;;5029618;28;20406;-86
2022/07/13 01:08:46;;;;;;;;;;;21.60;72.90;;;;;;5019054;28;19938;-84
2022/07/13 01:11:12;;;;;;;;;;;21.50;73.60;;;;;;5015038;28;19909;-87
2022/07/13 01:13:38;;;;;;;;;;;21.40;73.70;;;;;;4993864;28;20008;-87
2022/07/13 01:16:04;;;;;;;;;;;21.20;75.20;;;;;;5005203;28;20331;-87
2022/07/13 01:18:30;;;;;;;;;;;21.20;77.10;;;;;;5007479;28;19928;-87
2022/07/13 01:20:56;;;;;;;;;;;21.10;78.30;;;;;;4990157;28;19949;-88
2022/07/13 01:23:22;;;;;;;;;;;21.00;79.90;;;;;;5003097;28;19914;-87
2022/07/13 01:25:48;;;;;;;;;;;20.80;80.10;;;;;;5042442;28;19982;-86
2022/07/13 01:28:13;;;;;;;;;;;20.60;80.90;;;;;;5033706;28;19913;-87
2022/07/13 01:30:39;;;;;;;;;;;20.60;81.20;;;;;;5014290;28;19921;-87
2022/07/13 01:33:04;;;;;;;;;;;20.60;79.70;;;;;;5008890;28;19924;-87
2022/07/13 01:35:30;;;;;;;;;;;20.50;78.80;;;;;;5010944;28;19952;-87
2022/07/13 01:37:56;;;;;;;;;;;20.50;79.40;;;;;;5002930;28;19914;-87
2022/07/13 01:40:21;;;;;;;;;;;20.50;80.50;;;;;;5007612;28;19956;-87
2022/07/13 01:42:48;;;;;;;;;;;20.40;81.20;;;;;;5002544;28;19949;-87
2022/07/13 01:45:14;;;;;;;;;;;20.40;81.60;;;;;;5022411;28;19914;-87
2022/07/13 01:47:43;;;;;;;;;;;20.40;79.00;;;;;;5008553;28;20398;-88
2022/07/13 01:50:10;;;;;;;;;;;20.40;78.50;;;;;;5015886;28;19914;-87
2022/07/13 01:52:36;;;;;;;;;;;20.30;79.30;;;;;;5012627;28;19984;-86
2022/07/13 01:55:05;;;;;;;;;;;20.30;80.60;;;;;;5014994;28;20012;-87
2022/07/13 01:57:31;;;;;;;;;;;20.30;81.20;;;;;;5011985;28;19928;-86
2022/07/13 01:59:57;;;;;;;;;;;20.30;81.30;;;;;;5008972;28;20032;-86
2022/07/13 02:02:22;;;;;;;;;;;20.20;81.90;;;;;;5007549;28;19983;-86
2022/07/13 02:04:48;;;;;;;;;;;20.10;82.50;;;;;;5009443;28;20296;-87
2022/07/13 02:07:13;;;;;;;;;;;20.10;82.70;;;;;;5009728;28;19914;-87
2022/07/13 02:09:39;;;;;;;;;;;20.10;82.80;;;;;;4996711;28;19925;-87
2022/07/13 02:12:05;;;;;;;;;;;19.90;83.10;;;;;;5010081;28;20372;-87
2022/07/13 02:14:30;;;;;;;;;;;20.00;83.00;;;;;;4999831;28;19918;-87
2022/07/13 02:16:55;;;;;;;;;;;20.10;82.60;;;;;;4997567;28;19957;-87
2022/07/13 02:19:21;;;;;;;;;;;20.10;82.50;;;;;;5006657;28;20392;-87
2022/07/13 02:21:47;;;;;;;;;;;20.10;82.70;;;;;;5024284;28;19917;-87
2022/07/13 02:24:12;;;;;;;;;;;20.10;82.60;;;;;;5001512;28;20013;-87
2022/07/13 02:26:38;;;;;;;;;;;20.10;82.60;;;;;;4997985;28;19918;-86
2022/07/13 02:29:04;;;;;;;;;;;20.10;82.80;;;;;;5009703;28;19952;-87
2022/07/13 02:31:30;;;;;;;;;;;20.10;82.60;;;;;;5031583;28;19923;-86
2022/07/13 02:33:55;;;;;;;;;;;20.10;83.00;;;;;;5002247;28;20084;-87
2022/07/13 02:36:21;;;;;;;;;;;20.10;83.40;;;;;;5016045;28;19918;-85
2022/07/13 02:38:46;;;;;;;;;;;20.20;82.70;;;;;;5045827;28;19914;-86
2022/07/13 02:41:11;;;;;;;;;;;20.20;83.00;;;;;;5024263;28;19910;-86
2022/07/13 02:43:37;;;;;;;;;;;20.20;82.80;;;;;;5017122;28;19913;-85
2022/07/13 02:46:02;;;;;;;;;;;20.30;82.80;;;;;;5005766;28;20373;-86
2022/07/13 02:48:28;;;;;;;;;;;20.30;83.00;;;;;;5015011;28;19996;-86
2022/07/13 02:50:53;;;;;;;;;;;20.30;83.20;;;;;;5011298;28;20419;-86
2022/07/13 02:53:19;;;;;;;;;;;20.30;83.20;;;;;;5028603;28;20331;-86
2022/07/13 02:55:44;;;;;;;;;;;20.30;83.30;;;;;;5007716;28;19917;-86
2022/07/13 02:58:09;;;;;;;;;;;20.30;83.70;;;;;;5028747;28;20008;-86
2022/07/13 03:00:36;;;;;;;;;;;20.30;83.70;;;;;;5026194;28;19988;-86
2022/07/13 03:03:02;;;;;;;;;;;20.20;83.70;;;;;;5026372;28;19921;-86
2022/07/13 03:05:27;;;;;;;;;;;20.20;83.90;;;;;;5004668;28;19918;-87
2022/07/13 03:07:53;;;;;;;;;;;20.20;84.00;;;;;;5026639;28;19979;-86
2022/07/13 03:10:18;;;;;;;;;;;20.20;83.80;;;;;;5013642;28;19914;-86
2022/07/13 03:12:44;;;;;;;;;;;20.20;83.30;;;;;;5004670;28;20368;-86
2022/07/13 03:15:09;;;;;;;;;;;20.30;82.90;;;;;;5022977;28;19918;-86
2022/07/13 03:17:36;;;;;;;;;;;20.30;82.70;;;;;;5010417;28;19925;-86
2022/07/13 03:20:01;;;;;;;;;;;20.20;82.80;;;;;;5024884;28;20403;-86
2022/07/13 03:22:27;;;;;;;;;;;20.20;82.60;;;;;;5024215;28;19921;-86
2022/07/13 03:24:52;;;;;;;;;;;20.20;82.10;;;;;;5024624;28;19933;-86
2022/07/13 03:27:18;;;;;;;;;;;20.10;82.30;;;;;;5009772;28;19994;-85
2022/07/13 03:29:43;;;;;;;;;;;20.10;82.50;;;;;;5026517;28;19917;-85
2022/07/13 03:32:09;;;;;;;;;;;20.10;82.40;;;;;;5019813;28;19993;-87
2022/07/13 03:34:34;;;;;;;;;;;20.10;82.60;;;;;;5014999;28;20292;-86
2022/07/13 03:36:59;;;;;;;;;;;20.10;82.00;;;;;;5000112;28;19913;-86
2022/07/13 03:39:25;;;;;;;;;;;20.10;79.70;;;;;;5000550;28;19984;-85
2022/07/13 03:41:50;;;;;;;;;;;20.20;75.30;;;;;;5004463;28;19996;-85
2022/07/13 03:44:16;;;;;;;;;;;20.20;75.50;;;;;;5008420;28;19937;-85
2022/07/13 03:46:41;;;;;;;;;;;20.20;75.70;;;;;;5012715;28;20299;-86
2022/07/13 03:49:07;;;;;;;;;;;20.10;76.40;;;;;;5018144;28;19924;-86
2022/07/13 03:51:32;;;;;;;;;;;20.20;75.60;;;;;;5002938;28;20000;-86
2022/07/13 03:53:58;;;;;;;;;;;20.20;76.10;;;;;;4998288;28;19964;-86
2022/07/13 03:56:24;;;;;;;;;;;20.20;76.60;;;;;;4996713;28;19976;-86
2022/07/13 03:58:49;;;;;;;;;;;20.20;77.10;;;;;;5014917;28;20035;-85
2022/07/13 04:01:16;;;;;;;;;;;20.20;77.80;;;;;;5005477;28;19924;-85
2022/07/13 04:03:42;;;;;;;;;;;20.20;78.60;;;;;;5032215;28;19917;-86
2022/07/13 04:06:07;;;;;;;;;;;20.20;78.70;;;;;;5008771;28;19913;-85
2022/07/13 04:08:33;;;;;;;;;;;20.20;79.20;;;;;;5013592;28;19913;-85
2022/07/13 04:10:58;;;;;;;;;;;20.20;79.90;;;;;;5021874;28;19917;-85
2022/07/13 04:13:24;;;;;;;;;;;20.20;80.50;;;;;;5008265;28;19914;-86
2022/07/13 04:15:49;;;;;;;;;;;20.30;81.00;;;;;;5006326;28;19917;-85
2022/07/13 04:18:15;;;;;;;;;;;20.30;80.50;;;;;;5000674;28;19913;-85
2022/07/13 04:20:40;;;;;;;;;;;20.30;80.30;;;;;;5012371;28;19928;-84
2022/07/13 04:23:05;;;;;;;;;;;20.30;80.70;;;;;;5002201;28;20305;-85
2022/07/13 04:25:31;;;;;;;;;;;20.40;80.80;;;;;;4998158;28;19959;-85
2022/07/13 04:27:56;;;;;;;;;;;20.30;81.20;;;;;;5016144;28;19918;-85
2022/07/13 04:30:22;;;;;;;;;;;20.30;81.20;;;;;;5007181;28;19914;-85
2022/07/13 04:32:47;;;;;;;;;;;20.40;81.00;;;;;;5001020;28;19910;-84
2022/07/13 04:35:13;;;;;;;;;;;20.30;80.60;;;;;;5007867;28;19988;-85
2022/07/13 04:37:38;;;;;;;;;;;20.40;80.50;;;;;;5002434;28;19936;-85
2022/07/13 04:40:04;;;;;;;;;;;20.50;80.80;;;;;;4990661;28;19910;-84
2022/07/13 04:42:29;;;;;;;;;;;20.50;81.00;;;;;;4992216;28;19913;-85
2022/07/13 04:44:55;;;;;;;;;;;20.50;81.30;;;;;;5005846;28;19955;-85
2022/07/13 04:47:20;;;;;;;;;;;20.50;81.30;;;;;;5007962;28;19921;-86
2022/07/13 04:49:46;;;;;;;;;;;20.50;81.50;;;;;;5005667;28;19956;-85
2022/07/13 04:52:11;;;;;;;;;;;20.60;81.30;;;;;;5006359;28;19913;-85
2022/07/13 04:54:37;;;;;;;;;;;20.60;81.20;;;;;;5006966;28;20274;-85
2022/07/13 04:57:02;;;;;;;;;;;20.60;79.90;;;;;;5018982;28;20031;-85
2022/07/13 04:59:28;;;;;;;;;;;20.60;79.70;;;;;;4999812;28;19910;-85
2022/07/13 05:01:53;;;;;;;;;;;20.80;79.50;;;;;;5042811;22;19929;-80
2022/07/13 05:04:19;;;;;;;;;;;20.80;79.40;;;;;;5060886;28;19928;-80
2022/07/13 05:06:44;;;;;;;;;;;20.80;79.30;;;;;;5039063;28;19920;-81
2022/07/13 05:09:10;;;;;;;;;;;20.90;79.30;;;;;;5045901;28;20384;-81
2022/07/13 05:11:36;;;;;;;;;;;20.90;79.20;;;;;;5050957;28;20380;-81
2022/07/13 05:14:01;;;;;;;;;;;21.00;79.00;;;;;;5047363;28;20046;-81
2022/07/13 05:16:26;;;;;;;;;;;21.10;78.90;;;;;;5053100;28;19960;-81
2022/07/13 05:18:52;;;;;;;;;;;21.20;78.80;;;;;;5056858;28;19949;-80
2022/07/13 05:21:17;;;;;;;;;;;21.20;78.70;;;;;;5050198;28;20007;-81
2022/07/13 05:23:43;;;;;;;;;;;21.20;78.30;;;;;;5047985;28;19912;-80
2022/07/13 05:26:09;;;;;;;;;;;21.30;78.60;;;;;;5048691;28;19916;-80
2022/07/13 05:28:34;;;;;;;;;;;21.30;78.60;;;;;;5047724;28;19988;-81
2022/07/13 05:31:00;;;;;;;;;;;21.30;77.70;;;;;;5053052;28;19912;-80
2022/07/13 05:33:25;;;;;;;;;;;21.30;77.60;;;;;;5052410;28;19967;-81
2022/07/13 05:35:51;;;;;;;;;;;21.30;77.90;;;;;;5043564;28;20617;-81
2022/07/13 05:38:16;;;;;;;;;;;21.40;77.70;;;;;;5038079;28;19913;-80
2022/07/13 05:40:42;;;;;;;;;;;21.50;76.80;;;;;;5048966;28;20381;-81
2022/07/13 05:43:07;;;;;;;;;;;21.50;76.00;;;;;;5051717;28;20139;-80
2022/07/13 05:45:32;;;;;;;;;;;21.60;75.80;;;;;;5051451;28;19943;-80
2022/07/13 05:47:58;;;;;;;;;;;21.60;74.50;;;;;;5047275;28;19913;-80
2022/07/13 05:50:24;;;;;;;;;;;21.60;73.90;;;;;;5051856;28;19939;-81
2022/07/13 05:52:49;;;;;;;;;;;21.80;73.50;;;;;;5055788;28;20004;-80
2022/07/13 05:55:15;;;;;;;;;;;21.80;73.60;;;;;;5066424;28;19923;-81
2022/07/13 05:57:40;;;;;;;;;;;21.90;74.50;;;;;;5046478;28;19935;-81
2022/07/13 06:00:10;;;;;;;;;;;22.00;72.40;;;;;;5049567;28;19945;-79
2022/07/13 06:02:35;;;;;;;;;;;22.00;72.60;;;;;;5049384;28;20012;-79
2022/07/13 06:05:01;;;;;;;;;;;22.10;71.30;;;;;;5053624;28;20004;-80
2022/07/13 06:07:26;;;;;;;;;;;22.10;70.80;;;;;;5045547;28;19928;-80
2022/07/13 06:09:52;;;;;;;;;;;22.20;70.70;;;;;;5061789;28;19915;-79
2022/07/13 06:12:18;;;;;;;;;;;22.30;70.20;;;;;;5050526;28;20401;-79
2022/07/13 06:14:43;;;;;;;;;;;22.30;69.00;;;;;;5050886;28;20038;-79
2022/07/13 06:17:08;;;;;;;;;;;22.20;69.90;;;;;;5042234;28;20373;-79
2022/07/13 06:19:34;;;;;;;;;;;22.10;70.10;;;;;;5049822;28;19921;-79
2022/07/13 06:22:00;;;;;;;;;;;22.20;70.10;;;;;;5054139;28;19967;-79
2022/07/13 06:24:25;;;;;;;;;;;22.40;69.80;;;;;;5046306;28;19940;-79
2022/07/13 06:26:51;;;;;;;;;;;22.60;67.60;;;;;;5058407;28;19919;-79
2022/07/13 06:29:16;;;;;;;;;;;22.90;66.50;;;;;;5046164;28;19920;-79
2022/07/13 06:31:42;;;;;;;;;;;23.10;65.50;;;;;;5044730;28;20281;-79
2022/07/13 06:34:07;;;;;;;;;;;23.30;65.50;;;;;;5050440;28;20555;-79
2022/07/13 06:36:34;;;;;;;;;;;23.20;64.20;;;;;;5052616;28;19921;-79
2022/07/13 06:39:00;;;;;;;;;;;23.20;64.60;;;;;;5054223;28;19916;-79
2022/07/13 06:41:26;;;;;;;;;;;23.20;63.50;;;;;;5048118;28;20331;-79
2022/07/13 06:43:51;;;;;;;;;;;23.30;62.90;;;;;;5049958;28;19936;-79
2022/07/13 06:46:16;;;;;;;;;;;23.60;63.00;;;;;;5053175;28;19952;-79
2022/07/13 06:48:42;;;;;;;;;;;23.90;61.80;;;;;;5047540;28;19913;-79
2022/07/13 06:51:07;;;;;;;;;;;24.20;60.50;;;;;;5052509;28;19917;-79
2022/07/13 06:53:33;;;;;;;;;;;24.40;60.00;;;;;;5053311;28;21356;-79
2022/07/13 06:55:59;;;;;;;;;;;24.50;59.60;;;;;;5048173;28;20370;-79
2022/07/13 06:58:24;;;;;;;;;;;24.80;57.60;;;;;;5050498;28;19913;-78
2022/07/13 07:00:50;;;;;;;;;;;24.90;58.70;;;;;;5051499;28;19916;-79
2022/07/13 07:03:15;;;;;;;;;;;24.90;57.90;;;;;;5048759;28;20397;-79
2022/07/13 07:05:41;;;;;;;;;;;24.90;56.00;;;;;;5048533;28;20382;-79
2022/07/13 07:08:07;;;;;;;;;;;25.00;56.60;;;;;;5046952;28;19913;-79
2022/07/13 07:10:33;;;;;;;;;;;25.10;55.70;;;;;;5053302;28;20369;-79
2022/07/13 07:12:58;;;;;;;;;;;25.20;55.50;;;;;;5049600;28;19920;-79
2022/07/13 07:15:23;;;;;;;;;;;25.50;55.20;;;;;;5049910;28;19972;-79
2022/07/13 07:17:49;;;;;;;;;;;25.50;54.60;;;;;;5056274;28;19916;-79
2022/07/13 07:20:15;;;;;;;;;;;25.40;54.00;;;;;;5062234;28;19980;-79
2022/07/13 07:22:41;;;;;;;;;;;25.40;53.50;;;;;;5058246;28;19912;-79
2022/07/13 07:25:07;;;;;;;;;;;25.40;51.60;;;;;;5057453;28;19915;-79
2022/07/13 07:27:33;;;;;;;;;;;25.50;51.30;;;;;;5046185;28;19958;-79
2022/07/13 07:29:58;;;;;;;;;;;25.50;51.50;;;;;;5051592;28;19954;-78
2022/07/13 07:32:24;;;;;;;;;;;25.60;50.90;;;;;;5044750;28;19913;-79
2022/07/13 07:34:49;;;;;;;;;;;25.70;50.00;;;;;;5055353;28;20727;-79
2022/07/13 07:37:15;;;;;;;;;;;25.80;48.70;;;;;;5043630;28;19919;-79
2022/07/13 07:39:41;;;;;;;;;;;25.90;48.60;;;;;;5051466;28;20377;-80
2022/07/13 07:42:06;;;;;;;;;;;26.00;48.40;;;;;;5052079;28;19917;-79
2022/07/13 07:44:32;;;;;;;;;;;26.00;47.40;;;;;;5047663;28;19912;-79
2022/07/13 07:46:57;;;;;;;;;;;26.10;47.00;;;;;;5045743;28;20442;-79
2022/07/13 07:49:23;;;;;;;;;;;26.20;47.30;;;;;;5050330;28;19913;-78
2022/07/13 07:51:48;;;;;;;;;;;26.20;47.10;;;;;;5053087;28;19920;-79
2022/07/13 07:54:14;;;;;;;;;;;26.30;46.70;;;;;;5058026;28;19917;-79
2022/07/13 07:56:39;;;;;;;;;;;26.10;46.70;;;;;;5053256;28;20341;-79
2022/07/13 07:59:05;;;;;;;;;;;26.20;45.90;;;;;;5051890;28;19913;-79
2022/07/13 08:01:30;;;;;;;;;;;26.40;46.10;;;;;;5048996;28;19917;-78
2022/07/13 08:03:56;;;;;;;;;;;26.60;45.10;;;;;;5049704;28;19970;-79
2022/07/13 08:06:21;;;;;;;;;;;26.80;44.00;;;;;;5052799;28;19920;-79
2022/07/13 08:08:47;;;;;;;;;;;26.90;44.00;;;;;;5062415;28;19912;-78
2022/07/13 08:11:16;;;;;;;;;;;27.00;44.80;;;;;;5051440;28;19913;-78
2022/07/13 08:13:42;;;;;;;;;;;27.20;43.80;;;;;;5048179;28;19979;-78
2022/07/13 08:16:07;;;;;;;;;;;27.30;43.90;;;;;;5043988;28;19917;-78
2022/07/13 08:18:33;;;;;;;;;;;27.30;44.00;;;;;;5044534;28;20360;-78
2022/07/13 08:20:58;;;;;;;;;;;27.30;44.00;;;;;;5051661;28;19962;-79
2022/07/13 08:26:08;;;;;;;;;;;27.20;43.20;;;;;;5052035;28;19967;-78
2022/07/13 08:28:33;;;;;;;;;;;27.30;43.80;;;;;;5050082;28;19954;-78
2022/07/13 08:30:59;;;;;;;;;;;27.20;44.80;;;;;;5050259;28;19919;-78
2022/07/13 08:39:06;;;;;;;;;;;27.10;44.40;;;;;;5053129;28;20237;-78
2022/07/13 08:41:32;;;;;;;;;;;27.10;43.70;;;;;;5053102;28;20417;-79
2022/07/13 08:43:58;;;;;;;;;;;27.20;43.90;;;;;;5045403;28;19965;-78
2022/07/13 08:46:24;;;;;;;;;;;27.30;43.80;;;;;;5044460;28;20559;-78
2022/07/13 08:48:50;;;;;;;;;;;27.30;44.00;;;;;;5049258;28;19916;-78
2022/07/13 08:51:18;;;;;;;;;;;27.30;43.20;;;;;;5052510;28;19909;-79
2022/07/13 08:53:44;;;;;;;;;;;27.30;44.00;;;;;;5049624;28;19913;-78
2022/07/13 08:56:10;;;;;;;;;;;27.20;43.40;;;;;;5047774;28;19940;-79
2022/07/13 08:58:37;;;;;;;;;;;27.20;44.80;;;;;;5044654;28;20043;-79
2022/07/13 09:01:02;;;;;;;;;;;27.30;43.80;;;;;;5054590;28;19971;-79
2022/07/13 09:03:34;;;;;;;;;;;27.30;44.00;;;;;;5054389;28;19924;-78
2022/07/13 09:06:00;;;;;;;;;;;27.20;43.70;;;;;;5049808;28;20000;-78
2022/07/13 09:08:25;;;;;;;;;;;27.20;43.50;;;;;;5046780;28;20348;-79
2022/07/13 09:10:58;;;;;;;;;;;27.30;43.90;;;;;;5050760;28;19913;-78
2022/07/13 09:13:40;;;;;;;;;;;27.50;44.50;;;;;;5066878;28;20016;-79
2022/07/13 09:16:15;;;;;;;;;;;27.60;43.40;;;;;;5048354;28;20377;-79
2022/07/13 09:18:41;;;;;;;;;;;27.60;43.80;;;;;;5045582;28;19909;-79
2022/07/13 09:21:07;;;;;;;;;;;27.50;43.70;;;;;;5072415;28;20435;-79
2022/07/13 09:23:33;;;;;;;;;;;27.50;44.00;;;;;;5071838;28;19912;-78
2022/07/13 09:25:58;;;;;;;;;;;27.50;43.80;;;;;;5038372;28;19912;-79
2022/07/13 09:28:24;;;;;;;;;;;27.70;44.30;;;;;;5047759;28;20495;-79
2022/07/13 09:30:49;;;;;;;;;;;27.80;43.80;;;;;;5049916;28;19909;-80
2022/07/13 09:33:30;;;;;;;;;;;27.90;44.20;;;;;;5050231;28;20425;-78
2022/07/13 09:35:55;;;;;;;;;;;27.90;43.90;;;;;;5048999;28;19917;-79
2022/07/13 09:38:31;;;;;;;;;;;28.00;44.00;;;;;;5044004;28;19912;-84
2022/07/13 09:41:18;;;;;;;;;;;28.00;43.60;;;;;;5051155;28;20000;-84
2022/07/13 09:46:47;;;;;;;;;;;27.90;43.70;;;;;;5049723;28;19951;-84
2022/07/13 09:49:15;;;;;;;;;;;27.90;44.00;;;;;;5051820;28;19913;-83
2022/07/13 09:51:41;;;;;;;;;;;28.10;44.60;;;;;;5036998;28;19909;-84
2022/07/13 09:54:06;;;;;;;;;;;28.20;43.60;;;;;;5051373;28;19931;-82
2022/07/13 09:56:32;;;;;;;;;;;28.30;43.10;;;;;;5047763;28;19947;-83
2022/07/13 09:58:59;;;;;;;;;;;28.30;43.50;;;;;;5038457;28;20285;-83
2022/07/13 10:01:25;;;;;;;;;;;28.50;43.50;;;;;;5048987;28;19996;-83
2022/07/13 10:03:50;;;;;;;;;;;28.70;43.30;;;;;;5052107;28;20013;-85
2022/07/13 10:06:16;;;;;;;;;;;28.70;42.20;;;;;;5043945;28;19944;-84
2022/07/13 10:08:42;;;;;;;;;;;28.70;42.40;;;;;;5046573;28;20042;-83
2022/07/13 10:11:08;;;;;;;;;;;28.70;43.00;;;;;;5053262;28;19913;-83
2022/07/13 10:13:34;;;;;;;;;;;28.80;42.70;;;;;;5055350;28;19908;-84
2022/07/13 10:15:59;;;;;;;;;;;28.80;42.90;;;;;;5055223;28;19919;-84
2022/07/13 10:18:29;;;;;;;;;;;28.70;42.70;;;;;;5070582;28;19995;-83
2022/07/13 10:21:12;;;;;;;;;;;28.60;42.40;;;;;;5045843;28;19932;-84
2022/07/13 10:23:38;;;;;;;;;;;28.60;42.40;;;;;;5055971;28;19909;-83
2022/07/13 10:26:16;;;;;;;;;;;28.60;42.70;;;;;;5050811;28;19917;-83
2022/07/13 10:28:42;;;;;;;;;;;28.90;43.00;;;;;;5040385;28;20327;-86
2022/07/13 10:31:36;;;;;;;;;;;29.00;42.10;;;;;;5044547;28;19960;-84
2022/07/13 10:34:02;;;;;;;;;;;29.10;41.80;;;;;;5041770;28;19912;-85
2022/07/13 10:36:46;;;;;;;;;;;29.20;41.40;;;;;;5049575;28;20048;-83
2022/07/13 10:39:11;;;;;;;;;;;29.10;42.00;;;;;;5045816;28;19964;-85
2022/07/13 10:41:54;;;;;;;;;;;29.10;41.70;;;;;;5052623;28;19956;-84
2022/07/13 10:44:29;;;;;;;;;;;28.80;42.10;;;;;;5040348;28;19956;-85
2022/07/13 10:46:55;;;;;;;;;;;28.70;42.80;;;;;;5047926;28;20568;-84
2022/07/13 10:49:44;;;;;;;;;;;28.70;42.80;;;;;;5048994;28;20202;-82
2022/07/13 10:52:22;;;;;;;;;;;28.50;42.90;;;;;;5055019;28;19909;-84
2022/07/13 10:55:07;;;;;;;;;;;28.40;43.00;;;;;;5055105;28;20285;-83
2022/07/13 10:57:39;;;;;;;;;;;28.50;43.60;;;;;;5054961;28;19909;-83
2022/07/13 11:00:43;;;;;;;;;;;28.50;43.60;;;;;;5052922;28;19913;-82
2022/07/13 11:03:07;;;;;;;;;;;28.70;43.20;;;;;;5073359;22;20398;-87
2022/07/13 11:05:36;;;;;;;;;;;28.80;42.80;;;;;;5028743;28;19996;-84
2022/07/13 11:08:12;;;;;;;;;;;29.00;42.80;;;;;;5035162;28;19916;-84
2022/07/13 11:10:37;;;;;;;;;;;29.30;42.40;;;;;;5030172;28;19910;-86
2022/07/13 11:13:04;;;;;;;;;;;29.50;41.30;;;;;;5033654;28;20327;-86
2022/07/13 11:15:45;;;;;;;;;;;29.60;41.30;;;;;;5040007;28;19928;-83
2022/07/13 11:18:22;;;;;;;;;;;29.50;41.10;;;;;;5035644;28;19984;-82
2022/07/13 11:21:25;;;;;;;;;;;29.50;41.90;;;;;;4996086;28;19956;-82
2022/07/13 11:26:54;;;;;;;;;;;29.30;41.50;;;;;;5039324;28;20423;-83
2022/07/13 11:29:30;;;;;;;;;;;29.40;41.90;;;;;;4999318;28;19914;-83
2022/07/13 11:31:56;;;;;;;;;;;29.30;42.30;;;;;;5018648;28;19913;-83
2022/07/13 11:34:22;;;;;;;;;;;29.40;41.70;;;;;;5017043;28;19914;-83
2022/07/13 11:36:48;;;;;;;;;;;29.20;42.50;;;;;;5020446;28;19928;-83
2022/07/13 11:39:24;;;;;;;;;;;29.10;42.80;;;;;;5014103;28;20308;-83
2022/07/13 11:41:51;;;;;;;;;;;29.10;42.80;;;;;;5005958;28;19916;-81
2022/07/13 11:44:22;;;;;;;;;;;29.10;43.10;;;;;;5015643;28;19964;-81
2022/07/13 11:46:47;;;;;;;;;;;29.20;43.40;;;;;;5015085;28;19913;-81
2022/07/13 11:49:13;;;;;;;;;;;29.20;42.80;;;;;;5011705;28;19975;-82
2022/07/13 11:51:41;;;;;;;;;;;29.20;43.40;;;;;;4995501;28;19914;-82
2022/07/13 11:54:08;;;;;;;;;;;29.40;43.00;;;;;;5014763;28;19913;-81
2022/07/13 11:56:33;;;;;;;;;;;29.20;42.30;;;;;;5004607;28;20460;-81
2022/07/13 11:58:59;;;;;;;;;;;29.10;42.40;;;;;;5004616;28;19913;-84
2022/07/13 12:01:25;;;;;;;;;;;29.10;43.10;;;;;;5008338;28;19910;-83
2022/07/13 12:03:51;;;;;;;;;;;29.00;42.20;;;;;;4995532;28;19986;-83
2022/07/13 12:06:17;;;;;;;;;;;29.00;43.30;;;;;;4997702;28;20403;-84
2022/07/13 12:08:43;;;;;;;;;;;29.00;43.80;;;;;;5010897;28;19916;-84
2022/07/13 12:11:11;;;;;;;;;;;29.20;43.00;;;;;;5026078;28;19928;-84
2022/07/13 12:13:38;;;;;;;;;;;29.40;42.70;;;;;;5011601;28;19974;-86
2022/07/13 12:16:04;;;;;;;;;;;29.60;40.70;;;;;;5005701;28;20241;-86
2022/07/13 12:18:30;;;;;;;;;;;29.80;40.80;;;;;;5016314;28;19909;-82
2022/07/13 12:20:56;;;;;;;;;;;29.90;40.10;;;;;;5017515;28;19910;-83
2022/07/13 12:23:22;;;;;;;;;;;30.00;40.70;;;;;;5015241;28;19909;-84
2022/07/13 12:26:03;;;;;;;;;;;30.10;40.20;;;;;;5014329;28;19914;-84
2022/07/13 12:28:28;;;;;;;;;;;30.10;40.10;;;;;;5010010;28;20041;-83
2022/07/13 12:30:56;;;;;;;;;;;30.00;40.10;;;;;;5006270;28;19969;-82
2022/07/13 12:33:23;;;;;;;;;;;30.00;40.00;;;;;;4996296;28;20520;-85
2022/07/13 12:36:07;;;;;;;;;;;30.00;39.30;;;;;;5010696;28;19921;-83
2022/07/13 12:38:34;;;;;;;;;;;30.00;39.90;;;;;;5024012;28;19920;-85
2022/07/13 12:41:01;;;;;;;;;;;29.90;40.70;;;;;;5028754;28;19918;-82
2022/07/13 12:43:30;;;;;;;;;;;29.90;40.40;;;;;;5029203;28;19924;-83
2022/07/13 12:45:56;;;;;;;;;;;29.80;41.20;;;;;;5028309;28;19936;-83
2022/07/13 12:48:23;;;;;;;;;;;29.80;40.50;;;;;;5033627;28;20068;-84
2022/07/13 12:50:57;;;;;;;;;;;29.80;40.60;;;;;;5027022;28;19921;-84
2022/07/13 12:53:22;;;;;;;;;;;29.80;41.00;;;;;;5018901;28;19956;-83
2022/07/13 12:55:55;;;;;;;;;;;30.00;41.50;;;;;;5004755;28;19969;-85
2022/07/13 12:58:38;;;;;;;;;;;30.00;41.40;;;;;;5014888;28;19926;-83
2022/07/13 13:01:03;;;;;;;;;;;29.80;42.00;;;;;;5009638;28;19932;-85
2022/07/13 13:03:29;;;;;;;;;;;29.80;42.30;;;;;;5019267;28;19999;-86
2022/07/13 13:05:54;;;;;;;;;;;29.70;42.00;;;;;;5017445;28;20332;-85
2022/07/13 13:08:20;;;;;;;;;;;29.80;41.80;;;;;;5009765;28;19924;-84
2022/07/13 13:10:45;;;;;;;;;;;29.70;42.00;;;;;;4994652;28;19917;-83
2022/07/13 13:13:11;;;;;;;;;;;29.80;41.70;;;;;;5009967;28;19910;-84
2022/07/13 13:15:36;;;;;;;;;;;29.90;42.00;;;;;;5018854;28;19913;-85
2022/07/13 13:18:02;;;;;;;;;;;30.00;41.30;;;;;;5010101;28;20016;-85
2022/07/13 13:20:27;;;;;;;;;;;29.90;42.00;;;;;;5028061;28;19913;-85
2022/07/13 13:22:53;;;;;;;;;;;30.00;41.40;;;;;;5030700;28;20334;-84
2022/07/13 13:25:18;;;;;;;;;;;30.00;41.80;;;;;;5008858;28;19917;-85
2022/07/13 13:27:44;;;;;;;;;;;30.00;42.00;;;;;;5007580;28;19936;-85
2022/07/13 13:32:53;;;;;;;;;;;30.00;41.80;;;;;;5006085;28;19928;-84
2022/07/13 13:35:19;;;;;;;;;;;30.20;40.90;;;;;;4991509;28;19914;-84
2022/07/13 13:37:46;;;;;;;;;;;30.40;40.30;;;;;;4993265;28;19914;-84
2022/07/13 13:40:12;;;;;;;;;;;30.50;40.20;;;;;;4991916;28;19964;-84
2022/07/13 13:42:37;;;;;;;;;;;30.50;40.30;;;;;;4993688;28;19944;-84
2022/07/13 13:45:03;;;;;;;;;;;30.70;40.40;;;;;;5009381;28;19985;-84
2022/07/13 13:47:29;;;;;;;;;;;30.70;39.70;;;;;;5016797;28;19947;-85
2022/07/13 13:49:54;;;;;;;;;;;30.50;39.50;;;;;;5010805;28;19916;-83
2022/07/13 13:52:19;;;;;;;;;;;30.30;41.10;;;;;;5001881;28;19917;-83
2022/07/13 13:54:45;;;;;;;;;;;30.20;42.40;;;;;;5002110;28;19932;-84
2022/07/13 13:57:10;;;;;;;;;;;30.10;41.80;;;;;;5022626;28;19995;-84
2022/07/13 13:59:36;;;;;;;;;;;30.00;41.60;;;;;;5019097;28;19928;-82
2022/07/13 14:02:02;;;;;;;;;;;30.00;41.80;;;;;;5009960;28;19920;-83
2022/07/13 14:04:29;;;;;;;;;;;30.10;40.60;;;;;;5013429;28;19952;-83
2022/07/13 14:06:54;;;;;;;;;;;30.30;39.80;;;;;;5013740;28;20372;-84
2022/07/13 14:09:20;;;;;;;;;;;30.20;39.00;;;;;;5011074;28;19985;-84
2022/07/13 14:11:46;;;;;;;;;;;30.10;38.80;;;;;;5008671;28;19913;-83
2022/07/13 14:14:11;;;;;;;;;;;29.90;38.70;;;;;;5006582;28;20360;-83
2022/07/13 14:16:36;;;;;;;;;;;29.90;39.20;;;;;;5010907;28;19913;-83
2022/07/13 14:19:02;;;;;;;;;;;29.60;39.90;;;;;;5010167;28;20000;-84
2022/07/13 14:21:28;;;;;;;;;;;29.70;40.20;;;;;;5010499;28;19914;-84
2022/07/13 14:23:53;;;;;;;;;;;29.80;41.60;;;;;;5004273;28;19933;-83
2022/07/13 14:26:18;;;;;;;;;;;29.70;41.60;;;;;;5017580;28;19913;-84
2022/07/13 14:28:44;;;;;;;;;;;29.60;41.60;;;;;;5011313;28;19944;-83
2022/07/13 14:31:09;;;;;;;;;;;29.40;42.00;;;;;;5005682;28;20350;-85